Time;durP1;ratioP1;P1;durP2;ratioP2;P2;SDS_P1;SDS_P2;PMS_P1;PMS_P2;Temp;Humidity;BMP_temperature;BMP_pressure;BME280_temperature;BME280_humidity;BME280_pressure;Samples;Min_cycle;Max_cycle;Signal;HPM_P1;HPM_P2
2021/03/12 00:01:38;;;;;;;1.90;1.80;;;7.80;99.90;;;;;;10490008;28;20370;-79
2021/03/12 00:06:40;;;;;;;3.43;2.77;;;7.80;99.90;;;;;;10488140;28;20220;-79
2021/03/12 00:11:41;;;;;;;2.60;2.50;;;7.90;99.90;;;;;;10504198;28;20783;-78
2021/03/12 00:16:44;;;;;;;2.33;2.13;;;8.00;99.90;;;;;;10488412;28;20271;-78
2021/03/12 00:21:46;;;;;;;3.17;2.47;;;8.10;99.90;;;;;;10511161;28;20303;-79
2021/03/12 00:26:47;;;;;;;1.73;1.63;;;8.20;99.90;;;;;;10486944;28;20224;-78
2021/03/12 00:31:50;;;;;;;2.13;2.03;;;8.30;99.90;;;;;;10488628;28;20243;-79
2021/03/12 00:36:51;;;;;;;3.13;2.10;;;8.40;99.90;;;;;;10487078;28;20216;-79
2021/03/12 00:41:53;;;;;;;2.37;2.20;;;8.40;99.90;;;;;;10488093;28;20204;-78
2021/03/12 00:46:56;;;;;;;1.93;1.70;;;8.50;99.90;;;;;;10468633;28;20698;-79
2021/03/12 00:51:58;;;;;;;2.10;1.80;;;8.60;99.90;;;;;;10486182;28;20213;-79
2021/03/12 00:57:02;;;;;;;2.87;1.63;;;8.50;99.90;;;;;;10486274;28;20242;-79
2021/03/12 01:02:05;;;;;;;1.87;1.30;;;8.60;99.90;;;;;;10488325;28;20755;-78
2021/03/12 01:07:07;;;;;;;1.70;1.30;;;8.70;99.90;;;;;;10493865;28;21137;-80
2021/03/12 01:12:09;;;;;;;3.07;1.40;;;8.70;99.90;;;;;;10477162;28;20232;-78
2021/03/12 01:17:15;;;;;;;1.83;1.60;;;8.80;99.90;;;;;;10476803;28;20715;-79
2021/03/12 01:22:17;;;;;;;1.47;1.37;;;8.90;99.90;;;;;;10493723;28;20201;-80
2021/03/12 01:27:19;;;;;;;2.60;1.60;;;9.00;99.90;;;;;;10500524;28;20632;-79
2021/03/12 01:32:25;;;;;;;1.53;1.43;;;8.90;99.60;;;;;;10493856;28;20228;-79
2021/03/12 01:37:30;;;;;;;2.77;1.60;;;8.90;98.20;;;;;;10476774;28;20243;-81
2021/03/12 01:42:37;;;;;;;1.17;1.10;;;8.80;96.80;;;;;;10477286;28;20197;-80
2021/03/12 01:47:43;;;;;;;1.63;1.30;;;8.80;97.20;;;;;;10477976;28;20255;-79
2021/03/12 01:52:46;;;;;;;1.37;1.27;;;8.90;97.00;;;;;;10495999;28;20266;-80
2021/03/12 01:57:48;;;;;;;1.73;1.50;;;8.90;98.00;;;;;;10495166;28;20311;-80
2021/03/12 02:03:06;;;;;;;1.60;1.50;;;8.90;98.40;;;;;;10481957;28;20205;-80
2021/03/12 02:08:29;;;;;;;2.03;1.77;;;8.90;97.90;;;;;;10501780;28;20188;-79
2021/03/12 02:13:49;;;;;;;1.90;1.57;;;8.80;97.70;;;;;;10525706;22;20228;-77
2021/03/12 02:18:58;;;;;;;1.63;1.40;;;8.70;98.40;;;;;;10455689;28;20236;-77
2021/03/12 02:24:07;;;;;;;2.70;1.40;;;8.60;97.00;;;;;;10443044;28;20701;-78
2021/03/12 02:29:14;;;;;;;3.87;2.30;;;8.50;97.90;;;;;;10429406;28;20296;-77
2021/03/12 02:34:18;;;;;;;2.17;1.57;;;8.50;98.70;;;;;;10435274;28;20229;-77
2021/03/12 02:39:24;;;;;;;2.53;1.30;;;8.40;98.50;;;;;;10433118;28;20220;-77
2021/03/12 02:44:31;;;;;;;4.50;1.37;;;8.40;97.90;;;;;;10412139;28;20221;-77
2021/03/12 02:49:37;;;;;;;1.73;1.40;;;8.40;98.10;;;;;;10411949;28;20305;-77
2021/03/12 02:54:43;;;;;;;1.70;1.60;;;8.30;98.20;;;;;;10412022;28;20230;-77
2021/03/12 02:59:46;;;;;;;3.10;1.50;;;8.30;97.00;;;;;;10411369;28;20245;-77
2021/03/12 03:05:01;;;;;;;1.40;1.30;;;8.20;97.20;;;;;;10413480;28;20218;-77
2021/03/12 03:10:10;;;;;;;1.70;1.60;;;8.20;97.70;;;;;;10413786;28;20299;-77
2021/03/12 03:15:15;;;;;;;4.17;1.70;;;8.20;97.40;;;;;;10409788;28;20663;-77
2021/03/12 03:20:18;;;;;;;6.20;1.87;;;8.20;96.80;;;;;;10411933;28;20236;-77
2021/03/12 03:25:22;;;;;;;1.30;1.10;;;8.10;97.00;;;;;;10410193;28;20218;-77
2021/03/12 03:30:27;;;;;;;1.70;1.60;;;8.10;97.30;;;;;;10410381;28;20208;-77
2021/03/12 03:35:43;;;;;;;2.20;2.00;;;8.10;96.90;;;;;;10409083;28;20973;-77
2021/03/12 03:40:45;;;;;;;1.70;1.60;;;8.10;97.10;;;;;;10412534;28;20206;-77
2021/03/12 03:45:48;;;;;;;2.00;1.47;;;8.10;96.70;;;;;;10410760;28;20217;-77
2021/03/12 03:51:08;;;;;;;3.63;1.63;;;8.10;95.70;;;;;;10416426;28;20206;-77
2021/03/12 03:56:15;;;;;;;2.07;1.40;;;8.10;95.50;;;;;;10393033;28;20311;-77
2021/03/12 04:01:19;;;;;;;4.27;1.63;;;8.10;95.70;;;;;;10394654;28;20289;-78
2021/03/12 04:06:30;;;;;;;2.10;1.67;;;8.10;94.10;;;;;;10413693;28;20241;-78
2021/03/12 04:11:34;;;;;;;3.30;1.83;;;8.10;92.80;;;;;;10428528;28;20213;-77
2021/03/12 04:16:37;;;;;;;2.10;1.47;;;8.10;92.50;;;;;;10413305;28;20229;-77
2021/03/12 04:21:39;;;;;;;5.90;1.60;;;8.10;92.50;;;;;;10409532;28;20214;-78
2021/03/12 04:26:42;;;;;;;2.73;1.70;;;8.20;92.20;;;;;;10393119;28;20221;-77
2021/03/12 04:31:49;;;;;;;2.27;1.20;;;8.20;90.80;;;;;;10408198;28;20236;-77
2021/03/12 04:36:52;;;;;;;3.33;1.50;;;8.20;90.80;;;;;;10408157;28;20241;-77
2021/03/12 04:41:54;;;;;;;1.60;1.50;;;8.10;89.70;;;;;;10416447;28;20226;-77
2021/03/12 04:47:03;;;;;;;3.27;2.30;;;8.10;89.10;;;;;;10415142;28;20702;-78
2021/03/12 04:52:06;;;;;;;6.73;1.93;;;8.10;90.40;;;;;;10397689;28;20232;-77
2021/03/12 04:57:09;;;;;;;2.83;1.37;;;8.20;90.00;;;;;;10411349;28;20230;-78
2021/03/12 05:02:13;;;;;;;3.13;1.90;;;8.20;90.00;;;;;;10415239;28;20665;-77
2021/03/12 05:07:20;;;;;;;2.37;1.93;;;8.20;90.00;;;;;;10414497;28;20222;-78
2021/03/12 05:12:31;;;;;;;2.80;1.17;;;8.30;90.00;;;;;;10415147;28;20267;-78
2021/03/12 05:17:33;;;;;;;1.60;1.50;;;8.30;88.80;;;;;;10397360;28;20291;-77
2021/03/12 05:22:36;;;;;;;3.50;1.60;;;8.30;89.70;;;;;;10397345;28;20202;-78
2021/03/12 05:27:39;;;;;;;1.70;1.50;;;8.30;89.20;;;;;;10413686;28;20709;-77
2021/03/12 05:32:42;;;;;;;1.60;1.50;;;8.30;89.00;;;;;;10409350;28;20230;-78
2021/03/12 05:37:46;;;;;;;2.43;1.60;;;8.30;88.20;;;;;;10397139;28;20565;-79
2021/03/12 05:42:51;;;;;;;2.90;1.20;;;8.30;90.30;;;;;;10399104;28;20674;-78
2021/03/12 05:47:56;;;;;;;2.10;1.53;;;8.40;90.50;;;;;;10414320;28;20224;-78
2021/03/12 05:52:58;;;;;;;1.83;1.47;;;8.40;90.00;;;;;;10425242;28;20296;-77
2021/03/12 05:58:03;;;;;;;2.40;1.40;;;8.40;90.80;;;;;;10414940;28;20232;-78
2021/03/12 06:03:08;;;;;;;3.57;1.13;;;8.40;91.00;;;;;;10418621;28;20513;-78
2021/03/12 06:08:18;;;;;;;3.47;1.13;;;8.40;91.30;;;;;;10418711;28;20304;-77
2021/03/12 06:13:20;;;;;;;1.70;1.60;;;8.50;90.70;;;;;;10436631;28;20292;-78
2021/03/12 06:18:27;;;;;;;2.23;1.47;;;8.40;90.80;;;;;;10441777;28;20708;-77
2021/03/12 06:23:39;;;;;;;4.40;1.53;;;8.30;90.30;;;;;;10430571;28;20285;-77
2021/03/12 06:29:08;;;;;;;3.23;1.43;;;8.30;90.70;;;;;;10432945;28;20223;-77
2021/03/12 06:34:31;;;;;;;4.90;1.90;;;8.30;90.40;;;;;;10395898;28;20232;-78
2021/03/12 06:40:16;;;;;;;3.90;1.50;;;8.30;89.40;;;;;;10413266;28;20206;-77
2021/03/12 06:45:19;;;;;;;3.83;1.93;;;8.30;90.60;;;;;;10430768;28;20221;-77
2021/03/12 06:50:22;;;;;;;2.10;1.70;;;8.20;91.00;;;;;;10433008;28;20206;-77
2021/03/12 06:55:43;;;;;;;2.90;1.30;;;8.20;90.60;;;;;;10409794;28;20302;-78
2021/03/12 07:00:50;;;;;;;3.10;1.60;;;8.10;90.60;;;;;;10408923;28;20201;-77
2021/03/12 07:06:02;;;;;;;4.17;1.50;;;8.00;90.50;;;;;;10394464;28;20289;-78
2021/03/12 07:11:20;;;;;;;2.47;1.63;;;8.00;91.00;;;;;;10428728;28;20198;-77
2021/03/12 07:16:31;;;;;;;2.13;1.60;;;7.90;91.00;;;;;;10430713;28;20242;-77
2021/03/12 07:21:37;;;;;;;2.00;1.50;;;7.90;91.80;;;;;;10428708;28;20201;-77
2021/03/12 07:26:48;;;;;;;5.90;1.63;;;7.90;92.50;;;;;;10411069;28;20315;-78
2021/03/12 07:31:52;;;;;;;1.87;1.57;;;7.90;92.60;;;;;;10437177;28;20216;-77
2021/03/12 07:37:01;;;;;;;4.30;1.43;;;8.00;92.50;;;;;;10442618;28;20304;-77
2021/03/12 07:42:08;;;;;;;2.23;1.37;;;8.20;91.80;;;;;;10423079;28;20194;-77
2021/03/12 07:47:28;;;;;;;2.10;1.37;;;8.40;91.80;;;;;;10428721;28;20767;-77
2021/03/12 07:52:51;;;;;;;3.40;1.70;;;8.50;92.70;;;;;;10424263;28;20214;-77
2021/03/12 07:58:12;;;;;;;1.57;1.30;;;8.50;93.00;;;;;;10416841;28;20694;-77
2021/03/12 08:03:42;;;;;;;1.90;1.27;;;8.60;93.60;;;;;;10407725;28;20221;-78
2021/03/12 08:09:32;;;;;;;6.40;1.30;;;8.80;93.20;;;;;;10419451;28;20209;-77
2021/03/12 08:15:14;;;;;;;2.40;1.40;;;8.80;93.50;;;;;;10462036;22;20236;-81
2021/03/12 08:20:36;;;;;;;2.43;1.57;;;8.80;93.60;;;;;;10546423;28;20214;-78
2021/03/12 08:25:48;;;;;;;3.10;1.40;;;8.90;93.50;;;;;;10550108;28;20220;-78
2021/03/12 08:31:14;;;;;;;4.10;2.27;;;9.00;93.40;;;;;;10535950;28;20294;-78
2021/03/12 08:36:44;;;;;;;2.27;1.43;;;9.40;92.80;;;;;;10532207;28;20229;-80
2021/03/12 08:42:07;;;;;;;15.83;2.57;;;9.90;92.00;;;;;;10540844;28;20608;-81
2021/03/12 08:47:27;;;;;;;1.60;0.93;;;10.20;89.60;;;;;;10531055;28;20730;-78
2021/03/12 08:52:32;;;;;;;3.60;1.40;;;10.40;90.20;;;;;;10553977;28;20226;-78
2021/03/12 08:58:11;;;;;;;6.60;1.70;;;10.30;84.90;;;;;;10559053;28;20291;-78
2021/03/12 09:03:19;;;;;;;1.93;1.00;;;10.10;85.50;;;;;;10521001;28;20589;-78
2021/03/12 09:08:48;;;;;;;2.10;1.90;;;10.10;85.80;;;;;;10506225;28;20663;-78
2021/03/12 09:14:26;;;;;;;4.53;1.10;;;10.30;85.40;;;;;;10436952;28;20707;-78
2021/03/12 09:19:30;;;;;;;2.23;1.83;;;10.40;82.30;;;;;;10535136;28;20192;-78
2021/03/12 09:24:37;;;;;;;3.03;1.50;;;10.50;79.70;;;;;;10554488;28;20589;-78
2021/03/12 09:29:41;;;;;;;2.30;1.30;;;10.50;79.40;;;;;;10536416;28;20562;-78
2021/03/12 09:34:48;;;;;;;2.33;1.17;;;10.50;78.10;;;;;;10535003;28;20216;-78
2021/03/12 09:39:57;;;;;;;2.07;1.27;;;10.50;78.60;;;;;;10552352;27;20591;-78
2021/03/12 09:45:26;;;;;;;1.70;1.60;;;10.50;77.00;;;;;;10536812;28;20220;-78
2021/03/12 09:50:38;;;;;;;1.40;1.30;;;10.50;77.60;;;;;;10533883;28;20219;-78
2021/03/12 09:55:45;;;;;;;2.13;1.23;;;10.50;76.40;;;;;;10531568;28;20266;-78
2021/03/12 10:01:10;;;;;;;5.63;1.30;;;10.60;76.40;;;;;;10525468;28;20329;-78
2021/03/12 10:06:13;;;;;;;1.33;1.23;;;10.80;78.50;;;;;;10526656;28;20211;-78
2021/03/12 10:11:20;;;;;;;1.40;1.17;;;11.00;77.10;;;;;;10536085;28;20658;-78
2021/03/12 10:16:42;;;;;;;1.40;1.30;;;11.00;76.70;;;;;;10560380;28;20592;-81
2021/03/12 10:21:47;;;;;;;1.37;1.00;;;11.10;75.00;;;;;;10531510;28;20196;-80
2021/03/12 10:26:50;;;;;;;1.57;1.00;;;11.20;76.90;;;;;;10537870;28;20211;-80
2021/03/12 10:31:54;;;;;;;1.70;1.07;;;11.20;77.30;;;;;;10524090;28;20211;-80
2021/03/12 10:37:10;;;;;;;1.77;1.27;;;11.20;77.20;;;;;;10510791;28;20223;-80
2021/03/12 10:42:12;;;;;;;2.27;1.60;;;11.10;77.70;;;;;;10506077;28;20239;-80
2021/03/12 10:47:15;;;;;;;2.87;1.70;;;10.80;80.90;;;;;;10518956;28;20321;-78
2021/03/12 10:52:21;;;;;;;1.20;1.10;;;10.70;82.50;;;;;;10525119;28;20701;-78
2021/03/12 10:57:41;;;;;;;3.53;2.13;;;10.80;82.90;;;;;;10519156;28;20278;-78
2021/03/12 11:02:44;;;;;;;1.63;1.10;;;11.00;82.70;;;;;;10514886;28;20203;-78
2021/03/12 11:07:46;;;;;;;3.77;1.40;;;11.20;85.10;;;;;;10559013;28;20223;-78
2021/03/12 11:12:49;;;;;;;1.50;1.27;;;10.90;85.40;;;;;;10553258;28;20235;-78
2021/03/12 11:17:52;;;;;;;1.40;1.30;;;10.80;83.80;;;;;;10521626;28;20242;-78
2021/03/12 11:22:54;;;;;;;2.67;1.17;;;10.70;86.30;;;;;;10538499;28;20208;-80
2021/03/12 11:27:55;;;;;;;2.07;1.10;;;10.50;80.20;;;;;;10544627;28;20739;-80
2021/03/12 11:32:58;;;;;;;1.33;1.23;;;10.40;77.70;;;;;;10522969;28;20594;-80
2021/03/12 11:38:00;;;;;;;1.33;1.13;;;10.50;78.50;;;;;;10538077;28;20224;-80
2021/03/12 11:43:02;;;;;;;1.50;1.40;;;10.70;75.00;;;;;;10544191;28;20210;-79
2021/03/12 11:48:06;;;;;;;1.90;1.30;;;10.90;77.10;;;;;;10545184;28;20226;-78
2021/03/12 11:53:08;;;;;;;1.50;1.40;;;11.10;70.60;;;;;;10525608;28;20239;-78
2021/03/12 11:58:09;;;;;;;2.50;1.20;;;11.30;70.60;;;;;;10523369;28;20281;-78
2021/03/12 12:03:12;;;;;;;1.63;1.20;;;11.30;68.80;;;;;;10532434;28;20658;-78
2021/03/12 12:08:14;;;;;;;0.90;0.90;;;11.20;70.00;;;;;;10499534;28;20218;-78
2021/03/12 12:13:16;;;;;;;1.40;0.97;;;11.00;70.20;;;;;;10525461;28;20215;-78
2021/03/12 12:18:18;;;;;;;1.40;1.10;;;10.80;67.80;;;;;;10515834;28;20223;-78
2021/03/12 12:23:20;;;;;;;1.40;1.20;;;10.70;64.40;;;;;;10516176;28;20206;-78
2021/03/12 12:28:22;;;;;;;1.50;1.27;;;10.60;63.40;;;;;;10530126;28;20700;-78
2021/03/12 12:33:24;;;;;;;2.30;1.50;;;10.70;64.00;;;;;;10528184;28;20235;-78
2021/03/12 12:38:26;;;;;;;4.73;1.60;;;10.90;64.50;;;;;;10524915;28;20228;-78
2021/03/12 12:43:27;;;;;;;2.43;0.90;;;11.10;65.10;;;;;;10512307;28;20271;-78
2021/03/12 12:48:30;;;;;;;1.40;1.30;;;11.30;63.40;;;;;;10528890;28;20224;-78
2021/03/12 12:53:32;;;;;;;1.50;1.20;;;11.50;63.90;;;;;;10515924;28;20221;-78
2021/03/12 12:58:34;;;;;;;1.13;1.03;;;11.70;62.80;;;;;;10519584;28;20219;-78
2021/03/12 13:03:36;;;;;;;2.37;1.50;;;11.80;62.80;;;;;;10535353;28;20206;-78
2021/03/12 13:08:38;;;;;;;2.50;1.30;;;11.70;62.00;;;;;;10549521;28;20636;-78
2021/03/12 13:13:39;;;;;;;1.60;1.50;;;11.50;64.80;;;;;;10556779;28;20219;-78
2021/03/12 13:18:42;;;;;;;2.23;1.30;;;11.60;65.70;;;;;;10519923;28;20243;-78
2021/03/12 13:23:44;;;;;;;2.77;1.40;;;11.60;63.00;;;;;;10536539;28;20226;-78
2021/03/12 13:28:46;;;;;;;2.10;1.30;;;11.60;63.70;;;;;;10535883;28;20235;-78
2021/03/12 13:33:49;;;;;;;2.00;1.23;;;11.40;65.30;;;;;;10535802;28;20240;-80
2021/03/12 13:38:51;;;;;;;3.50;1.63;;;11.30;65.00;;;;;;10543077;28;20239;-80
2021/03/12 13:43:55;;;;;;;2.97;1.97;;;11.20;64.70;;;;;;10557986;28;20229;-80
2021/03/12 13:48:58;;;;;;;1.40;1.30;;;11.50;65.80;;;;;;10513398;28;20219;-80
2021/03/12 13:53:59;;;;;;;2.00;1.80;;;11.60;64.40;;;;;;10515533;28;20220;-78
2021/03/12 13:59:01;;;;;;;1.53;1.33;;;11.70;61.50;;;;;;10514336;28;20651;-78
2021/03/12 14:04:03;;;;;;;1.90;1.23;;;11.80;61.00;;;;;;10532061;28;20234;-78
2021/03/12 14:09:08;;;;;;;2.23;1.43;;;11.90;64.10;;;;;;10530859;28;20207;-78
2021/03/12 14:14:11;;;;;;;1.67;1.40;;;12.00;60.70;;;;;;10522841;28;20629;-78
2021/03/12 14:19:14;;;;;;;2.30;1.23;;;12.10;62.90;;;;;;10553392;22;20579;-79
2021/03/12 14:24:15;;;;;;;2.53;1.50;;;12.10;59.10;;;;;;10531076;28;20209;-76
2021/03/12 14:29:17;;;;;;;1.53;1.20;;;11.90;59.00;;;;;;10541041;28;20229;-79
2021/03/12 14:34:19;;;;;;;4.10;1.80;;;11.90;61.50;;;;;;10540653;28;20255;-79
2021/03/12 14:39:21;;;;;;;2.67;1.67;;;11.90;62.10;;;;;;10558692;28;20269;-79
2021/03/12 14:44:23;;;;;;;2.90;1.77;;;11.90;63.00;;;;;;10547898;28;20230;-79
2021/03/12 14:49:48;;;;;;;1.63;1.53;;;12.00;61.30;;;;;;10532877;28;20203;-79
2021/03/12 14:54:51;;;;;;;1.40;1.30;;;11.90;58.60;;;;;;10516708;28;20261;-78
2021/03/12 14:59:53;;;;;;;2.93;1.63;;;11.80;61.40;;;;;;10558829;28;20207;-77
2021/03/12 15:04:56;;;;;;;4.57;1.70;;;11.80;63.70;;;;;;10508944;28;20196;-77
2021/03/12 15:09:58;;;;;;;2.77;1.60;;;11.70;64.40;;;;;;10520016;28;20249;-77
2021/03/12 15:15:00;;;;;;;2.70;2.20;;;11.60;67.20;;;;;;10493587;28;20684;-77
2021/03/12 15:20:05;;;;;;;2.03;1.40;;;11.40;69.00;;;;;;10528739;28;20235;-77
2021/03/12 15:25:08;;;;;;;2.43;1.60;;;11.10;69.90;;;;;;10502034;28;20251;-76
2021/03/12 15:30:14;;;;;;;1.50;1.40;;;11.00;71.30;;;;;;10493079;28;20702;-78
2021/03/12 15:35:24;;;;;;;1.50;1.40;;;10.90;69.00;;;;;;10492051;28;20356;-77
2021/03/12 15:40:27;;;;;;;2.27;1.40;;;10.90;69.80;;;;;;10510810;28;20207;-79
2021/03/12 15:45:29;;;;;;;3.90;1.53;;;11.00;68.90;;;;;;10512621;28;20232;-79
2021/03/12 15:50:33;;;;;;;1.93;1.40;;;11.00;68.80;;;;;;10490027;28;20285;-78
2021/03/12 15:55:36;;;;;;;2.17;1.40;;;11.00;70.60;;;;;;10512074;28;20235;-78
2021/03/12 16:00:48;;;;;;;2.03;1.17;;;11.10;67.90;;;;;;10519800;28;20863;-79
2021/03/12 16:05:54;;;;;;;2.57;1.13;;;11.20;68.20;;;;;;10530230;28;20322;-78
2021/03/12 16:10:57;;;;;;;2.20;1.23;;;11.10;69.10;;;;;;10514683;28;20200;-79
2021/03/12 16:15:58;;;;;;;2.80;1.60;;;11.10;68.30;;;;;;10495805;28;20341;-78
2021/03/12 16:21:19;;;;;;;2.63;1.57;;;10.90;69.10;;;;;;10509004;28;20291;-78
2021/03/12 16:26:43;;;;;;;3.30;1.07;;;10.80;71.80;;;;;;10531514;28;20607;-78
2021/03/12 16:31:46;;;;;;;1.43;1.30;;;10.70;72.00;;;;;;10513881;28;20813;-79
2021/03/12 16:36:50;;;;;;;4.37;1.20;;;10.70;72.90;;;;;;10527580;28;20238;-76
2021/03/12 16:41:51;;;;;;;3.67;1.43;;;10.60;74.70;;;;;;10538829;28;20210;-77
2021/03/12 16:46:53;;;;;;;2.23;1.70;;;10.60;74.30;;;;;;10539241;28;20216;-78
2021/03/12 16:51:57;;;;;;;4.63;1.73;;;10.60;74.00;;;;;;10524810;28;20246;-77
2021/03/12 16:56:59;;;;;;;2.63;1.53;;;10.60;73.20;;;;;;10547521;28;20254;-77
2021/03/12 17:02:01;;;;;;;2.90;2.00;;;10.60;72.80;;;;;;10551696;28;20192;-76
2021/03/12 17:07:04;;;;;;;3.30;2.30;;;10.50;74.00;;;;;;10543166;28;20226;-76
2021/03/12 17:12:07;;;;;;;3.33;1.60;;;10.40;73.30;;;;;;10559661;28;20574;-77
2021/03/12 17:17:09;;;;;;;2.00;1.90;;;10.30;73.50;;;;;;10540044;28;20597;-78
2021/03/12 17:22:12;;;;;;;3.50;2.20;;;10.30;73.90;;;;;;10524186;28;20683;-77
2021/03/12 17:27:14;;;;;;;2.77;1.93;;;10.20;75.00;;;;;;10520223;28;20284;-79
2021/03/12 17:32:16;;;;;;;4.47;2.10;;;10.10;75.30;;;;;;10511231;28;20210;-77
2021/03/12 17:37:19;;;;;;;4.60;1.60;;;10.00;75.00;;;;;;10511487;28;20232;-77
2021/03/12 17:42:20;;;;;;;2.37;1.87;;;10.00;74.30;;;;;;10519504;28;20218;-77
2021/03/12 17:47:22;;;;;;;4.93;2.00;;;9.90;75.90;;;;;;10522980;28;20238;-77
2021/03/12 17:52:25;;;;;;;3.20;1.90;;;9.90;75.40;;;;;;10528668;28;20570;-77
2021/03/12 17:57:26;;;;;;;5.43;2.40;;;9.90;75.20;;;;;;10529615;28;20864;-77
2021/03/12 18:02:28;;;;;;;3.90;1.70;;;9.80;75.30;;;;;;10527466;28;20272;-77
2021/03/12 18:07:31;;;;;;;3.20;2.13;;;9.80;74.70;;;;;;10514738;28;20222;-77
2021/03/12 18:12:33;;;;;;;5.60;2.30;;;9.80;75.00;;;;;;10520535;28;20204;-77
2021/03/12 18:17:35;;;;;;;2.30;1.77;;;9.80;74.70;;;;;;10506642;28;20252;-77
2021/03/12 18:22:38;;;;;;;4.00;1.63;;;9.80;74.90;;;;;;10525666;28;20282;-77
2021/03/12 18:27:40;;;;;;;2.30;2.10;;;9.70;74.90;;;;;;10502492;28;20307;-77
2021/03/12 18:32:42;;;;;;;3.10;1.80;;;9.80;74.70;;;;;;10489224;28;20558;-77
2021/03/12 18:37:45;;;;;;;3.07;2.10;;;9.80;74.90;;;;;;10500388;28;21084;-77
2021/03/12 18:42:46;;;;;;;2.20;1.83;;;9.70;75.30;;;;;;10497070;28;20219;-76
2021/03/12 18:47:48;;;;;;;4.70;2.50;;;9.70;75.20;;;;;;10516159;28;20227;-76
2021/03/12 18:52:51;;;;;;;4.57;1.67;;;9.70;75.70;;;;;;10524186;28;20198;-77
2021/03/12 18:57:53;;;;;;;2.27;1.60;;;9.60;76.10;;;;;;10529460;28;20223;-77
2021/03/12 19:02:54;;;;;;;2.60;1.57;;;9.60;76.30;;;;;;10519904;28;20291;-76
2021/03/12 19:07:57;;;;;;;3.83;1.93;;;9.60;76.20;;;;;;10512163;28;20222;-76
2021/03/12 19:12:59;;;;;;;1.87;1.70;;;9.60;76.60;;;;;;10520864;28;20203;-77
2021/03/12 19:18:00;;;;;;;2.77;1.90;;;9.60;76.40;;;;;;10507809;28;20681;-77
2021/03/12 19:23:03;;;;;;;3.10;2.03;;;9.60;76.00;;;;;;10522522;28;20699;-77
2021/03/12 19:28:05;;;;;;;2.10;1.90;;;9.50;75.90;;;;;;10527909;28;20224;-77
2021/03/12 19:33:07;;;;;;;2.40;1.80;;;9.50;76.70;;;;;;10520043;28;20253;-77
2021/03/12 19:38:10;;;;;;;2.00;1.50;;;9.50;75.60;;;;;;10495457;28;20246;-77
2021/03/12 19:43:11;;;;;;;3.10;1.50;;;9.50;76.60;;;;;;10489516;28;20200;-77
2021/03/12 19:48:13;;;;;;;3.57;1.60;;;9.40;76.60;;;;;;10507759;28;20228;-77
2021/03/12 19:53:15;;;;;;;4.00;2.00;;;9.40;76.70;;;;;;10513923;28;20426;-77
2021/03/12 19:58:17;;;;;;;2.73;1.97;;;9.40;76.80;;;;;;10527362;28;20254;-76
2021/03/12 20:03:19;;;;;;;3.90;2.33;;;9.40;76.50;;;;;;10502547;28;20195;-77
2021/03/12 20:08:21;;;;;;;3.80;2.10;;;9.40;77.00;;;;;;10504948;28;20277;-77
2021/03/12 20:13:23;;;;;;;2.30;1.70;;;9.30;77.30;;;;;;10514121;28;20695;-77
2021/03/12 20:18:26;;;;;;;3.30;1.83;;;9.30;78.00;;;;;;10511838;23;20246;-77
2021/03/12 20:23:30;;;;;;;3.13;1.90;;;9.30;77.70;;;;;;10511503;28;20199;-78
2021/03/12 20:28:32;;;;;;;3.90;1.73;;;9.30;77.70;;;;;;10475683;28;20217;-78
2021/03/12 20:33:34;;;;;;;3.73;1.83;;;9.30;78.30;;;;;;10522599;28;20208;-78
2021/03/12 20:38:37;;;;;;;2.00;1.80;;;9.30;77.40;;;;;;10511070;28;20231;-77
2021/03/12 20:43:38;;;;;;;1.90;1.33;;;9.30;77.40;;;;;;10484847;28;20229;-78
2021/03/12 20:48:40;;;;;;;4.17;2.37;;;9.30;77.10;;;;;;10487513;28;20740;-78
2021/03/12 20:53:44;;;;;;;2.57;1.90;;;9.40;77.80;;;;;;10470374;28;20246;-78
2021/03/12 20:58:46;;;;;;;6.70;1.70;;;9.40;77.10;;;;;;10491177;28;20743;-77
2021/03/12 21:03:47;;;;;;;2.73;1.57;;;9.40;76.50;;;;;;10469398;28;20613;-78
2021/03/12 21:08:50;;;;;;;5.80;2.30;;;9.50;76.30;;;;;;10488663;28;20234;-78
2021/03/12 21:13:52;;;;;;;2.27;1.57;;;9.40;76.60;;;;;;10489508;28;20215;-76
2021/03/12 21:18:54;;;;;;;3.80;1.80;;;9.50;76.20;;;;;;10469949;28;20236;-78
2021/03/12 21:23:57;;;;;;;4.40;1.60;;;9.50;76.30;;;;;;10479640;28;20247;-78
2021/03/12 21:28:59;;;;;;;4.50;2.33;;;9.50;76.40;;;;;;10478467;28;20235;-77
2021/03/12 21:34:01;;;;;;;1.80;1.50;;;9.60;77.10;;;;;;10479307;28;20208;-78
2021/03/12 21:39:04;;;;;;;4.73;1.70;;;9.70;76.50;;;;;;10479625;28;20761;-77
2021/03/12 21:44:09;;;;;;;1.63;1.40;;;9.80;76.80;;;;;;10503174;28;20209;-77
2021/03/12 21:49:11;;;;;;;1.20;0.90;;;9.80;80.00;;;;;;10498712;28;20451;-77
2021/03/12 21:54:16;;;;;;;0.97;0.97;;;9.60;89.10;;;;;;10498788;28;20235;-77
2021/03/12 21:59:17;;;;;;;0.87;0.80;;;9.00;91.50;;;;;;10469055;28;20231;-77
2021/03/12 22:04:19;;;;;;;1.10;1.00;;;8.50;92.60;;;;;;10494696;28;20204;-77
2021/03/12 22:09:22;;;;;;;0.90;0.90;;;8.10;93.80;;;;;;10465531;28;20224;-78
2021/03/12 22:14:36;;;;;;;1.33;0.97;;;7.80;95.00;;;;;;10481737;28;20242;-77
2021/03/12 22:19:38;;;;;;;0.90;0.90;;;7.60;95.90;;;;;;10470934;28;20237;-78
2021/03/12 22:24:43;;;;;;;1.43;1.20;;;7.50;97.10;;;;;;10449379;28;20204;-77
2021/03/12 22:29:47;;;;;;;1.00;0.90;;;7.50;97.60;;;;;;10456255;28;20262;-78
2021/03/12 22:34:48;;;;;;;1.10;1.10;;;7.40;98.60;;;;;;10456564;28;20303;-77
2021/03/12 22:39:51;;;;;;;1.20;1.10;;;7.40;99.00;;;;;;10471710;28;20582;-78
2021/03/12 22:44:53;;;;;;;0.93;0.93;;;7.40;99.20;;;;;;10462876;28;20250;-78
2021/03/12 22:49:57;;;;;;;1.10;1.10;;;7.40;99.70;;;;;;10466695;28;20290;-77
2021/03/12 22:55:10;;;;;;;1.17;1.07;;;7.40;99.60;;;;;;10481409;28;20249;-78
2021/03/12 23:00:15;;;;;;;1.23;1.13;;;7.40;99.60;;;;;;10462917;28;20190;-77
2021/03/12 23:05:27;;;;;;;1.30;1.20;;;7.40;99.40;;;;;;10480426;28;20312;-78
2021/03/12 23:10:50;;;;;;;1.30;1.20;;;7.40;99.90;;;;;;10439677;28;20284;-78
2021/03/12 23:16:10;;;;;;;1.03;1.00;;;7.50;99.90;;;;;;10454975;28;20231;-78
2021/03/12 23:21:14;;;;;;;1.00;1.00;;;7.50;99.50;;;;;;10467907;28;20212;-78
2021/03/12 23:26:19;;;;;;;2.00;1.00;;;7.50;99.20;;;;;;10478714;28;20574;-78
2021/03/12 23:31:21;;;;;;;0.90;0.90;;;7.50;99.30;;;;;;10520458;28;20193;-78
2021/03/12 23:36:31;;;;;;;1.03;1.00;;;7.40;99.10;;;;;;10487188;28;20228;-77
2021/03/12 23:41:40;;;;;;;0.90;0.90;;;7.30;99.50;;;;;;10463212;28;20842;-78
2021/03/12 23:46:45;;;;;;;0.90;0.90;;;7.10;99.60;;;;;;10469150;28;20314;-78
2021/03/12 23:51:47;;;;;;;1.27;1.10;;;7.10;99.90;;;;;;10483631;28;20239;-77
2021/03/12 23:56:50;;;;;;;1.20;1.10;;;7.00;99.90;;;;;;10486509;28;20236;-77
